createdAt,value
2017-08-25T00:00:07.366Z,15.60
2017-08-25T00:02:36.357Z,15.70
2017-08-25T00:05:05.429Z,15.70
2017-08-25T00:07:34.376Z,15.80
2017-08-25T00:10:03.783Z,15.90
2017-08-25T00:12:32.697Z,15.80
2017-08-25T00:15:01.729Z,15.80
2017-08-25T00:17:31.335Z,15.70
2017-08-25T00:20:00.460Z,15.50
2017-08-25T00:22:29.593Z,15.40
2017-08-25T00:24:58.744Z,15.30
2017-08-25T00:27:27.738Z,15.40
2017-08-25T00:29:56.982Z,15.50
2017-08-25T00:32:25.905Z,15.60
2017-08-25T00:34:54.841Z,15.60
2017-08-25T00:37:23.655Z,15.60
2017-08-25T00:39:52.444Z,15.40
2017-08-25T00:42:22.009Z,15.30
2017-08-25T00:44:51.154Z,15.20
2017-08-25T00:47:20.339Z,15.30
2017-08-25T00:49:49.419Z,15.30
2017-08-25T00:52:18.428Z,15.20
2017-08-25T00:54:47.537Z,15.10
2017-08-25T00:57:16.668Z,15.10
2017-08-25T00:59:46.510Z,15.10
2017-08-25T01:02:15.490Z,15.20
2017-08-25T01:04:45.686Z,15.00
2017-08-25T01:07:14.810Z,15.00
2017-08-25T01:09:45.125Z,15.00
2017-08-25T01:12:14.297Z,15.00
2017-08-25T01:14:43.220Z,15.00
2017-08-25T01:17:12.021Z,15.10
2017-08-25T01:19:41.113Z,15.10
2017-08-25T01:22:10.149Z,15.00
2017-08-25T01:24:39.471Z,15.20
2017-08-25T01:27:08.402Z,15.00
2017-08-25T01:29:37.336Z,14.90
2017-08-25T01:32:06.830Z,14.80
2017-08-25T01:34:35.749Z,14.70
2017-08-25T01:37:04.952Z,14.70
2017-08-25T01:39:34.663Z,14.60
2017-08-25T01:42:03.738Z,14.60
2017-08-25T01:44:33.311Z,14.40
2017-08-25T01:47:03.185Z,14.40
2017-08-25T01:49:33.056Z,14.50
2017-08-25T01:52:02.349Z,14.40
2017-08-25T01:54:31.383Z,14.40
2017-08-25T01:57:00.342Z,14.30
2017-08-25T01:59:29.273Z,14.20
2017-08-25T02:01:58.369Z,14.20
2017-08-25T02:04:27.719Z,14.20
2017-08-25T02:06:57.072Z,14.30
2017-08-25T02:09:26.290Z,14.20
2017-08-25T02:11:55.362Z,14.10
2017-08-25T02:14:24.700Z,14.10
2017-08-25T02:16:53.976Z,14.00
2017-08-25T02:19:23.210Z,14.00
2017-08-25T02:21:52.096Z,13.90
2017-08-25T02:24:21.445Z,13.90
2017-08-25T02:26:50.233Z,13.80
2017-08-25T02:29:19.101Z,13.90
2017-08-25T02:31:48.227Z,13.80
2017-08-25T02:34:17.083Z,13.80
2017-08-25T02:36:46.481Z,13.80
2017-08-25T02:39:15.326Z,13.70
2017-08-25T02:41:44.456Z,13.70
2017-08-25T02:44:13.446Z,13.80
2017-08-25T02:46:42.390Z,13.90
2017-08-25T02:49:11.331Z,14.10
2017-08-25T02:52:46.286Z,13.90
2017-08-25T02:55:15.474Z,13.90
2017-08-25T02:57:44.506Z,13.90
2017-08-25T03:00:13.935Z,13.80
2017-08-25T03:02:43.322Z,13.90
2017-08-25T03:05:12.231Z,14.00
2017-08-25T03:07:42.031Z,13.90
2017-08-25T03:10:11.250Z,13.80
2017-08-25T03:12:40.101Z,13.90
2017-08-25T03:15:08.942Z,14.00
2017-08-25T03:17:38.194Z,14.10
2017-08-25T03:20:07.205Z,14.10
2017-08-25T03:22:36.125Z,14.20
2017-08-25T03:25:04.898Z,14.20
2017-08-25T03:27:33.918Z,14.30
2017-08-25T03:30:04.241Z,13.90
2017-08-25T03:32:33.282Z,13.90
2017-08-25T03:35:02.253Z,14.00
2017-08-25T03:37:31.259Z,14.00
2017-08-25T03:40:00.313Z,13.70
2017-08-25T03:42:30.406Z,13.70
2017-08-25T03:44:59.250Z,13.70
2017-08-25T03:47:28.020Z,13.90
2017-08-25T03:49:57.308Z,14.00
2017-08-25T03:52:26.334Z,14.20
2017-08-25T03:54:55.270Z,14.00
2017-08-25T03:57:24.859Z,13.90
2017-08-25T03:59:53.742Z,13.90
2017-08-25T04:02:23.356Z,14.10
2017-08-25T04:04:52.211Z,14.20
2017-08-25T04:07:22.013Z,14.30
2017-08-25T04:09:53.083Z,14.50
2017-08-25T04:12:22.129Z,14.50
2017-08-25T04:14:50.998Z,14.50
2017-08-25T04:17:20.580Z,14.70
2017-08-25T04:19:49.579Z,14.60
2017-08-25T04:22:20.488Z,14.80
2017-08-25T04:24:52.154Z,14.80
2017-08-25T04:27:21.225Z,14.90
2017-08-25T04:29:50.268Z,15.00
2017-08-25T04:32:20.830Z,14.70
2017-08-25T04:34:51.724Z,14.20
2017-08-25T04:37:20.638Z,14.20
2017-08-25T04:39:50.328Z,14.60
2017-08-25T04:42:19.213Z,14.50
2017-08-25T04:44:48.273Z,14.70
2017-08-25T04:47:17.097Z,14.90
2017-08-25T04:49:46.524Z,14.90
2017-08-25T04:52:15.873Z,15.00
2017-08-25T04:54:44.959Z,15.00
2017-08-25T04:57:14.332Z,15.10
2017-08-25T04:59:43.539Z,15.20
2017-08-25T05:02:12.447Z,15.30
2017-08-25T05:04:41.824Z,15.40
2017-08-25T05:07:10.656Z,15.50
2017-08-25T05:09:39.465Z,15.50
2017-08-25T05:12:09.926Z,15.60
2017-08-25T05:14:38.939Z,15.60
2017-08-25T05:17:07.982Z,15.60
2017-08-25T05:19:38.598Z,15.50
2017-08-25T05:22:07.654Z,15.50
2017-08-25T05:24:36.693Z,15.30
2017-08-25T05:27:06.559Z,15.50
2017-08-25T05:29:35.749Z,15.40
2017-08-25T05:32:05.343Z,15.60
2017-08-25T05:34:35.487Z,15.80
2017-08-25T05:37:04.443Z,15.90
2017-08-25T05:39:33.384Z,16.00
2017-08-25T05:42:02.404Z,16.10
2017-08-25T05:44:32.303Z,16.20
2017-08-25T05:47:01.746Z,16.20
2017-08-25T05:49:30.758Z,16.20
2017-08-25T05:51:59.606Z,16.20
2017-08-25T05:54:29.197Z,16.10
2017-08-25T05:56:58.095Z,16.00
2017-08-25T05:59:26.937Z,16.10
2017-08-25T06:01:55.808Z,16.30
2017-08-25T06:04:24.693Z,16.50
2017-08-25T06:06:53.572Z,16.70
2017-08-25T06:09:22.369Z,16.60
2017-08-25T06:11:51.174Z,16.60
2017-08-25T06:14:20.051Z,16.80
2017-08-25T06:16:49.182Z,16.90
2017-08-25T06:19:18.041Z,16.90
2017-08-25T06:21:46.948Z,16.90
2017-08-25T06:24:15.733Z,16.40
2017-08-25T06:26:44.597Z,16.60
2017-08-25T06:29:13.914Z,16.90
2017-08-25T06:31:42.941Z,17.20
2017-08-25T06:34:11.919Z,17.40
2017-08-25T06:36:40.918Z,17.40
2017-08-25T06:39:09.978Z,17.30
2017-08-25T06:41:38.944Z,17.00
2017-08-25T06:44:08.791Z,17.60
2017-08-25T06:46:37.748Z,17.60
2017-08-25T06:49:06.847Z,17.80
2017-08-25T06:51:35.624Z,17.70
2017-08-25T06:54:05.722Z,17.70
2017-08-25T06:56:35.298Z,17.50
2017-08-25T06:59:04.129Z,17.50
2017-08-25T07:01:34.029Z,17.60
2017-08-25T07:04:02.870Z,17.60
2017-08-25T07:06:31.709Z,17.70
2017-08-25T07:09:01.291Z,17.90
2017-08-25T07:11:30.063Z,17.90
2017-08-25T07:13:58.889Z,17.90
2017-08-25T07:16:27.794Z,18.00
2017-08-25T07:18:57.422Z,18.40
2017-08-25T07:21:26.274Z,18.30
2017-08-25T07:23:55.322Z,18.40
2017-08-25T07:26:24.331Z,18.40
2017-08-25T07:28:53.386Z,18.40
2017-08-25T07:31:23.952Z,18.30
2017-08-25T07:33:52.841Z,18.30
2017-08-25T07:36:21.708Z,18.40
2017-08-25T07:38:50.557Z,18.40
2017-08-25T07:41:20.173Z,18.40
2017-08-25T07:43:49.603Z,18.40
2017-08-25T07:50:05.112Z,18.70
2017-08-25T07:52:34.913Z,18.80
2017-08-25T07:55:04.244Z,18.90
2017-08-25T07:57:33.667Z,18.90
2017-08-25T08:00:03.130Z,19.10
2017-08-25T08:02:32.474Z,19.20
2017-08-25T08:05:01.769Z,19.20
2017-08-25T08:07:31.321Z,19.30
2017-08-25T08:10:01.571Z,19.50
2017-08-25T08:12:31.190Z,19.60
2017-08-25T08:15:00.919Z,19.60
2017-08-25T08:17:31.148Z,20.00
2017-08-25T08:20:00.553Z,20.00
2017-08-25T08:22:29.916Z,20.00
2017-08-25T08:24:59.596Z,20.00
2017-08-25T08:27:29.084Z,20.20
2017-08-25T08:29:58.706Z,20.20
2017-08-25T09:52:10.704Z,23.10
2017-08-25T09:54:39.942Z,23.20
2017-08-25T09:57:09.620Z,23.30
2017-08-25T09:59:39.270Z,23.40
2017-08-25T10:02:08.597Z,23.50
2017-08-25T10:04:38.205Z,23.50
2017-08-25T10:07:08.826Z,23.70
2017-08-25T10:09:38.592Z,23.70
2017-08-25T10:12:08.084Z,24.00
2017-08-25T10:14:37.570Z,24.20
2017-08-25T10:17:06.881Z,24.30
2017-08-25T10:19:36.281Z,24.50
2017-08-25T10:22:06.421Z,24.60
2017-08-25T10:24:35.811Z,24.60
2017-08-25T10:27:05.140Z,24.70
2017-08-25T10:29:35.574Z,25.10
2017-08-25T10:32:06.591Z,25.40
2017-08-25T10:34:44.790Z,25.30
2017-08-25T10:39:32.289Z,25.30
2017-08-25T10:45:18.836Z,25.40
2017-08-25T10:47:48.402Z,25.70
2017-08-25T10:50:17.810Z,26.30
2017-08-25T10:52:47.159Z,26.40
2017-08-25T10:55:16.619Z,26.40
2017-08-25T10:57:46.143Z,26.40
2017-08-25T11:00:17.061Z,26.40
2017-08-25T11:02:47.451Z,26.40
2017-08-25T11:05:16.827Z,26.10
2017-08-25T11:07:46.829Z,26.20
2017-08-25T11:10:16.346Z,26.30
2017-08-25T11:12:45.836Z,26.20
2017-08-25T11:15:15.528Z,26.40
2017-08-25T11:17:45.159Z,26.80
2017-08-25T11:20:16.122Z,26.70
2017-08-25T11:22:46.701Z,27.30
2017-08-25T11:25:16.484Z,27.20
2017-08-25T11:27:47.701Z,27.90
2017-08-25T11:30:18.330Z,27.60
2017-08-25T11:32:48.110Z,27.60
2017-08-25T11:35:17.726Z,27.90
2017-08-25T11:37:47.427Z,27.30
2017-08-25T11:40:16.963Z,27.20
2017-08-25T11:42:47.138Z,27.80
2017-08-25T11:45:16.682Z,27.80
2017-08-25T11:47:46.180Z,28.40
2017-08-25T11:50:15.748Z,28.90
2017-08-25T11:52:46.054Z,29.10
2017-08-25T11:55:15.739Z,29.00
2017-08-25T11:57:46.317Z,28.70
2017-08-25T12:00:15.980Z,28.70
2017-08-25T12:02:46.152Z,28.50
2017-08-25T12:05:16.117Z,28.40
2017-08-25T12:07:45.734Z,27.90
2017-08-25T12:10:15.157Z,27.90
2017-08-25T12:12:45.512Z,27.30
2017-08-25T12:15:15.040Z,27.30
2017-08-25T12:17:44.429Z,26.60
2017-08-25T12:20:13.815Z,26.30
2017-08-25T12:22:43.362Z,25.80
2017-08-25T12:25:12.755Z,26.30
2017-08-25T12:27:42.092Z,26.80
2017-08-25T12:30:12.289Z,27.10
2017-08-25T12:32:42.204Z,27.20
2017-08-25T12:35:12.029Z,27.20
2017-08-25T12:37:43.402Z,27.20
2017-08-25T12:40:12.965Z,27.20
2017-08-25T12:42:43.379Z,27.20
2017-08-25T12:45:13.823Z,27.30
2017-08-25T12:47:44.311Z,27.30
2017-08-25T12:50:14.493Z,27.20
2017-08-25T12:52:44.415Z,27.70
2017-08-25T12:55:13.878Z,28.20
2017-08-25T12:57:43.937Z,28.70
2017-08-25T13:00:15.566Z,29.20
2017-08-25T13:02:45.940Z,29.20
2017-08-25T13:05:16.220Z,29.50
2017-08-25T13:07:46.149Z,29.30
2017-08-25T13:10:16.066Z,28.20
2017-08-25T13:12:45.742Z,28.20
2017-08-25T13:15:15.265Z,27.50
2017-08-25T13:17:44.692Z,27.40
2017-08-25T13:20:14.318Z,27.70
2017-08-25T13:22:44.784Z,26.80
2017-08-25T13:25:15.188Z,26.70
2017-08-25T13:27:45.159Z,26.70
2017-08-25T13:30:14.713Z,26.60
2017-08-25T13:32:44.106Z,26.80
2017-08-25T13:35:14.444Z,26.60
2017-08-25T13:37:44.122Z,26.60
2017-08-25T13:40:13.492Z,26.50
2017-08-25T13:42:42.888Z,26.40
2017-08-25T13:45:12.319Z,26.20
2017-08-25T13:47:41.797Z,26.10
2017-08-25T13:50:11.228Z,26.40
2017-08-25T13:52:42.655Z,26.90
2017-08-25T13:55:12.139Z,27.50
2017-08-25T13:57:41.857Z,27.70
2017-08-25T14:00:11.402Z,27.40
2017-08-25T14:02:41.527Z,27.20
2017-08-25T14:05:11.730Z,27.30
2017-08-25T14:07:41.575Z,27.30
2017-08-25T14:10:11.141Z,27.30
2017-08-25T14:12:40.609Z,27.30
2017-08-25T14:15:10.613Z,27.00
2017-08-25T14:17:40.047Z,27.00
2017-08-25T14:20:09.540Z,26.70
2017-08-25T14:22:39.167Z,26.30
2017-08-25T14:25:08.579Z,26.40
2017-08-25T14:27:38.585Z,26.60
2017-08-25T14:30:08.434Z,26.50
2017-08-25T14:32:38.723Z,26.90
2017-08-25T14:35:09.204Z,26.90
2017-08-25T14:37:38.589Z,26.90
2017-08-25T14:40:09.641Z,26.60
2017-08-25T14:42:39.075Z,26.50
2017-08-25T14:45:08.895Z,26.50
2017-08-25T14:47:39.874Z,26.50
2017-08-25T14:50:39.828Z,26.40
2017-08-25T14:53:09.581Z,26.40
2017-08-25T14:56:42.677Z,26.00
2017-08-25T14:59:14.002Z,25.90
2017-08-25T15:01:43.463Z,25.80
2017-08-25T15:04:12.881Z,25.60
2017-08-25T15:06:42.638Z,25.50
2017-08-25T15:09:12.153Z,25.30
2017-08-25T15:11:41.709Z,25.30
2017-08-25T15:14:11.228Z,25.50
2017-08-25T15:16:41.602Z,26.00
2017-08-25T15:19:11.402Z,26.20
2017-08-25T15:21:40.979Z,26.40
2017-08-25T15:24:11.004Z,26.40
2017-08-25T15:26:41.340Z,26.40
2017-08-25T15:29:12.275Z,26.10
2017-08-25T15:31:42.732Z,26.10
2017-08-25T15:34:12.348Z,26.10
2017-08-25T15:36:54.425Z,26.30
2017-08-25T15:39:24.294Z,26.40
2017-08-25T15:41:54.130Z,26.40
2017-08-25T15:44:24.531Z,26.50
2017-08-25T15:46:54.578Z,26.50
2017-08-25T15:49:24.261Z,26.60
2017-08-25T15:51:53.789Z,26.60
2017-08-25T15:54:23.642Z,26.70
2017-08-25T15:56:53.226Z,26.70
2017-08-25T15:59:22.764Z,26.60
2017-08-25T16:01:52.211Z,26.60
2017-08-25T16:04:22.616Z,26.50
2017-08-25T16:06:54.550Z,26.40
2017-08-25T16:09:25.712Z,26.30
2017-08-25T16:12:00.045Z,26.20
2017-08-25T16:14:32.403Z,25.80
2017-08-25T16:17:05.141Z,25.70
2017-08-25T16:19:37.732Z,25.60
2017-08-25T16:22:09.243Z,25.30
2017-08-25T16:24:43.557Z,25.30
2017-08-25T16:27:14.276Z,25.30
2017-08-25T16:29:46.666Z,25.10
2017-08-25T16:32:18.024Z,25.00
2017-08-25T16:34:48.742Z,24.90
2017-08-25T16:37:19.233Z,24.70
2017-08-25T16:39:49.028Z,24.60
2017-08-25T16:42:21.016Z,24.30
2017-08-25T16:44:51.876Z,24.30
2017-08-25T16:47:25.640Z,24.20
2017-08-25T16:49:57.022Z,24.20
2017-08-25T16:52:27.667Z,24.30
2017-08-25T16:54:58.995Z,24.30
2017-08-25T16:57:29.637Z,24.40
2017-08-25T16:59:59.222Z,24.40
2017-08-25T17:02:28.912Z,24.40
2017-08-25T17:04:58.646Z,24.30
2017-08-25T17:07:29.156Z,24.30
2017-08-25T17:09:59.340Z,24.10
2017-08-25T17:12:28.912Z,24.10
2017-08-25T17:14:59.076Z,23.80
2017-08-25T17:17:28.505Z,23.80
2017-08-25T17:19:58.662Z,23.60
2017-08-25T17:22:29.015Z,23.40
2017-08-25T17:24:58.672Z,23.40
2017-08-25T17:27:28.344Z,23.40
2017-08-25T17:30:00.008Z,23.50
2017-08-25T17:32:29.488Z,23.50
2017-08-25T17:34:58.912Z,23.40
2017-08-25T17:37:28.305Z,23.40
2017-08-25T17:39:58.190Z,23.40
2017-08-25T17:42:27.892Z,23.30
2017-08-25T17:44:57.978Z,23.10
2017-08-25T17:47:27.479Z,23.10
2017-08-25T17:49:56.942Z,23.00
2017-08-25T17:52:26.355Z,22.90
2017-08-25T17:54:55.660Z,22.90
2017-08-25T17:57:25.081Z,22.90
2017-08-25T17:59:54.754Z,22.90
2017-08-25T18:02:24.271Z,23.00
2017-08-25T18:04:53.842Z,23.00
2017-08-25T18:07:23.332Z,23.00
2017-08-25T18:09:53.574Z,22.90
2017-08-25T18:12:23.080Z,22.90
2017-08-25T18:14:52.728Z,22.90
2017-08-25T18:17:22.171Z,22.80
2017-08-25T18:19:52.433Z,22.70
2017-08-25T18:22:22.051Z,22.70
2017-08-25T18:24:51.699Z,22.70
2017-08-25T18:27:22.071Z,22.60
2017-08-25T18:29:52.309Z,22.60
2017-08-25T18:32:22.878Z,22.50
2017-08-25T18:34:53.582Z,22.50
2017-08-25T18:37:23.115Z,22.50
2017-08-25T18:39:53.319Z,22.40
2017-08-25T18:42:23.647Z,22.30
2017-08-25T18:44:53.934Z,22.20
2017-08-25T18:47:23.856Z,22.20
2017-08-25T18:49:53.281Z,22.20
2017-08-25T18:52:22.869Z,22.20
2017-08-25T18:54:53.221Z,22.10
2017-08-25T18:57:23.955Z,22.00
2017-08-25T18:59:54.403Z,22.00
2017-08-25T19:02:25.051Z,22.00
2017-08-25T19:04:57.178Z,21.90
2017-08-25T19:07:27.734Z,21.70
2017-08-25T19:09:57.462Z,21.70
2017-08-25T19:12:27.392Z,21.70
2017-08-25T19:14:56.837Z,21.60
2017-08-25T19:17:27.580Z,21.40
2017-08-25T19:19:57.343Z,21.40
2017-08-25T19:22:27.491Z,21.30
2017-08-25T19:24:58.249Z,21.20
2017-08-25T19:27:27.935Z,21.10
2017-08-25T19:29:57.701Z,21.00
2017-08-25T19:32:27.215Z,21.00
2017-08-25T19:34:56.991Z,20.80
2017-08-25T19:37:26.472Z,20.80
2017-08-25T19:39:56.296Z,20.80
2017-08-25T19:42:27.059Z,20.80
2017-08-25T19:44:57.306Z,20.80
2017-08-25T19:47:27.458Z,20.80
2017-08-25T19:49:57.527Z,20.70
2017-08-25T19:52:27.669Z,20.60
2017-08-25T19:54:58.437Z,20.50
2017-08-25T19:57:28.428Z,20.60
2017-08-25T19:59:59.113Z,20.40
2017-08-25T20:02:29.092Z,20.40
2017-08-25T20:04:59.056Z,20.30
2017-08-25T20:07:29.162Z,20.30
2017-08-25T20:09:59.107Z,20.30
2017-08-25T20:12:30.400Z,20.20
2017-08-25T20:15:00.442Z,20.10
2017-08-25T20:17:30.373Z,20.10
2017-08-25T20:20:00.428Z,19.90
2017-08-25T20:22:31.412Z,19.80
2017-08-25T20:25:01.579Z,19.80
2017-08-25T20:27:33.140Z,19.80
2017-08-25T20:30:03.614Z,19.70
2017-08-25T20:32:33.522Z,19.90
2017-08-25T20:35:04.389Z,19.90
2017-08-25T20:37:35.350Z,19.70
2017-08-25T20:40:06.998Z,19.60
2017-08-25T20:42:38.863Z,19.60
2017-08-25T20:45:09.841Z,19.50
2017-08-25T20:47:41.053Z,19.50
2017-08-25T20:50:12.653Z,19.70
2017-08-25T20:52:44.723Z,19.70
2017-08-25T20:55:15.914Z,19.90
2017-08-25T20:57:45.900Z,19.90
2017-08-25T21:00:16.028Z,19.90
2017-08-25T21:02:47.079Z,19.70
2017-08-25T21:05:17.256Z,19.70
2017-08-25T21:07:47.312Z,19.60
2017-08-25T21:10:17.335Z,19.60
2017-08-25T21:12:48.802Z,19.60
2017-08-25T21:15:20.053Z,19.50
2017-08-25T21:17:50.985Z,19.50
2017-08-25T21:20:23.057Z,19.60
2017-08-25T21:22:53.791Z,19.60
2017-08-25T21:25:23.844Z,19.70
2017-08-25T21:27:53.863Z,19.70
2017-08-25T21:30:26.251Z,19.70
2017-08-25T21:32:57.437Z,19.80
2017-08-25T21:35:28.180Z,19.80
2017-08-25T21:37:58.368Z,19.90
2017-08-25T21:40:28.756Z,20.00
2017-08-25T21:42:58.844Z,20.10
2017-08-25T21:45:28.914Z,20.30
2017-08-25T21:47:59.984Z,20.20
2017-08-25T21:50:30.363Z,20.20
2017-08-25T21:53:01.136Z,20.30
2017-08-25T21:55:33.313Z,20.30
2017-08-25T21:58:03.315Z,20.30
2017-08-25T22:00:33.294Z,20.40
2017-08-25T22:03:04.343Z,20.50
2017-08-25T22:05:35.323Z,20.40
2017-08-25T22:08:04.826Z,20.40
2017-08-25T22:10:34.265Z,20.30
2017-08-25T22:13:04.378Z,20.10
2017-08-25T22:15:33.677Z,19.90
2017-08-25T22:18:03.287Z,19.70
2017-08-25T22:20:32.706Z,19.50
2017-08-25T22:23:04.967Z,19.60
2017-08-25T22:25:34.491Z,19.60
2017-08-25T22:28:06.424Z,19.70
2017-08-25T22:30:38.011Z,19.70
2017-08-25T22:33:09.589Z,19.80
2017-08-25T22:35:40.585Z,19.90
2017-08-25T22:38:09.898Z,19.90
2017-08-25T22:40:40.202Z,19.90
2017-08-25T22:43:10.367Z,20.00
2017-08-25T22:45:39.871Z,20.00
2017-08-25T22:48:09.369Z,20.00
2017-08-25T22:50:39.715Z,20.00
2017-08-25T22:53:09.864Z,20.10
2017-08-25T22:55:39.296Z,20.00
2017-08-25T22:58:08.985Z,20.10
2017-08-25T23:00:39.800Z,20.00
2017-08-25T23:03:09.273Z,20.00
2017-08-25T23:05:39.100Z,20.00
2017-08-25T23:08:08.444Z,20.00
2017-08-25T23:10:38.635Z,20.10
2017-08-25T23:13:07.996Z,20.10
2017-08-25T23:15:37.293Z,20.10
2017-08-25T23:18:06.674Z,20.00
2017-08-25T23:20:36.095Z,19.80
2017-08-25T23:23:05.456Z,19.50
2017-08-25T23:25:35.688Z,19.40
2017-08-25T23:28:04.974Z,19.40
2017-08-25T23:30:34.327Z,19.50
2017-08-25T23:33:03.610Z,19.40
2017-08-25T23:35:32.987Z,19.50
2017-08-25T23:38:03.428Z,19.50
2017-08-25T23:40:33.852Z,19.50
2017-08-25T23:43:03.231Z,19.50
2017-08-25T23:45:33.111Z,19.50
2017-08-25T23:48:02.467Z,19.60
2017-08-25T23:50:31.915Z,19.50
2017-08-25T23:53:01.649Z,19.50
2017-08-25T23:55:32.315Z,19.60
2017-08-25T23:58:04.202Z,19.60
